sensor_id;sensor_type;location;lat;lon;timestamp;P1;durP1;ratioP1;P2;durP2;ratioP2
55218;SDS011;65463;43.864;20.136;2023-09-12T00:00:36;13.48;;;4.15;;
55218;SDS011;65463;43.864;20.136;2023-09-12T00:03:03;10.95;;;4.38;;
55218;SDS011;65463;43.864;20.136;2023-09-12T00:05:29;8.90;;;4.40;;
55218;SDS011;65463;43.864;20.136;2023-09-12T00:07:55;15.80;;;4.75;;
55218;SDS011;65463;43.864;20.136;2023-09-12T00:10:21;15.82;;;4.90;;
55218;SDS011;65463;43.864;20.136;2023-09-12T00:12:47;17.50;;;4.53;;
55218;SDS011;65463;43.864;20.136;2023-09-12T00:15:14;13.43;;;4.35;;
55218;SDS011;65463;43.864;20.136;2023-09-12T00:17:40;15.68;;;4.28;;
55218;SDS011;65463;43.864;20.136;2023-09-12T00:20:06;15.18;;;4.53;;
55218;SDS011;65463;43.864;20.136;2023-09-12T00:22:33;11.52;;;4.30;;
55218;SDS011;65463;43.864;20.136;2023-09-12T00:24:59;10.13;;;4.18;;
55218;SDS011;65463;43.864;20.136;2023-09-12T00:27:25;13.45;;;3.78;;
55218;SDS011;65463;43.864;20.136;2023-09-12T00:29:51;8.77;;;4.13;;
55218;SDS011;65463;43.864;20.136;2023-09-12T00:32:18;11.27;;;4.47;;
55218;SDS011;65463;43.864;20.136;2023-09-12T00:34:44;13.15;;;4.20;;
55218;SDS011;65463;43.864;20.136;2023-09-12T00:37:10;9.02;;;4.03;;
55218;SDS011;65463;43.864;20.136;2023-09-12T00:39:37;8.23;;;4.05;;
55218;SDS011;65463;43.864;20.136;2023-09-12T00:42:03;8.82;;;4.18;;
55218;SDS011;65463;43.864;20.136;2023-09-12T00:44:30;10.25;;;4.07;;
55218;SDS011;65463;43.864;20.136;2023-09-12T00:46:56;9.70;;;3.95;;
55218;SDS011;65463;43.864;20.136;2023-09-12T00:49:22;11.65;;;4.18;;
55218;SDS011;65463;43.864;20.136;2023-09-12T00:51:49;9.63;;;4.35;;
55218;SDS011;65463;43.864;20.136;2023-09-12T00:54:16;12.82;;;4.18;;
55218;SDS011;65463;43.864;20.136;2023-09-12T00:56:42;9.52;;;4.03;;
55218;SDS011;65463;43.864;20.136;2023-09-12T00:59:08;8.88;;;3.88;;
55218;SDS011;65463;43.864;20.136;2023-09-12T01:01:36;9.82;;;4.20;;
55218;SDS011;65463;43.864;20.136;2023-09-12T01:04:02;9.40;;;3.97;;
55218;SDS011;65463;43.864;20.136;2023-09-12T01:06:28;9.10;;;4.25;;
55218;SDS011;65463;43.864;20.136;2023-09-12T01:08:55;11.77;;;4.40;;
55218;SDS011;65463;43.864;20.136;2023-09-12T01:11:21;9.25;;;3.90;;
55218;SDS011;65463;43.864;20.136;2023-09-12T01:13:47;10.60;;;4.00;;
55218;SDS011;65463;43.864;20.136;2023-09-12T01:16:14;13.32;;;4.38;;
55218;SDS011;65463;43.864;20.136;2023-09-12T01:18:40;13.95;;;4.47;;
55218;SDS011;65463;43.864;20.136;2023-09-12T01:23:50;16.15;;;4.55;;
55218;SDS011;65463;43.864;20.136;2023-09-12T01:26:36;13.05;;;4.72;;
55218;SDS011;65463;43.864;20.136;2023-09-12T01:29:07;13.55;;;4.72;;
55218;SDS011;65463;43.864;20.136;2023-09-12T01:31:34;11.00;;;4.78;;
55218;SDS011;65463;43.864;20.136;2023-09-12T01:34:10;11.70;;;4.65;;
55218;SDS011;65463;43.864;20.136;2023-09-12T01:36:37;12.05;;;4.93;;
55218;SDS011;65463;43.864;20.136;2023-09-12T01:39:03;14.10;;;5.30;;
55218;SDS011;65463;43.864;20.136;2023-09-12T01:41:31;11.68;;;4.68;;
55218;SDS011;65463;43.864;20.136;2023-09-12T01:43:58;13.38;;;4.95;;
55218;SDS011;65463;43.864;20.136;2023-09-12T01:46:29;12.48;;;4.72;;
55218;SDS011;65463;43.864;20.136;2023-09-12T01:48:57;11.45;;;4.90;;
55218;SDS011;65463;43.864;20.136;2023-09-12T01:51:24;12.63;;;4.63;;
55218;SDS011;65463;43.864;20.136;2023-09-12T01:53:50;11.40;;;4.55;;
55218;SDS011;65463;43.864;20.136;2023-09-12T01:56:17;11.77;;;5.00;;
55218;SDS011;65463;43.864;20.136;2023-09-12T01:58:44;15.35;;;5.30;;
55218;SDS011;65463;43.864;20.136;2023-09-12T02:01:11;11.70;;;4.60;;
55218;SDS011;65463;43.864;20.136;2023-09-12T02:03:37;13.48;;;5.18;;
55218;SDS011;65463;43.864;20.136;2023-09-12T02:06:03;13.48;;;5.10;;
55218;SDS011;65463;43.864;20.136;2023-09-12T02:08:29;14.77;;;5.10;;
55218;SDS011;65463;43.864;20.136;2023-09-12T02:10:55;13.85;;;5.55;;
55218;SDS011;65463;43.864;20.136;2023-09-12T02:13:21;13.32;;;5.40;;
55218;SDS011;65463;43.864;20.136;2023-09-12T02:15:47;14.10;;;5.30;;
55218;SDS011;65463;43.864;20.136;2023-09-12T02:18:14;13.02;;;5.55;;
55218;SDS011;65463;43.864;20.136;2023-09-12T02:20:40;12.45;;;4.60;;
55218;SDS011;65463;43.864;20.136;2023-09-12T02:23:09;13.48;;;5.22;;
55218;SDS011;65463;43.864;20.136;2023-09-12T02:25:36;15.50;;;5.32;;
55218;SDS011;65463;43.864;20.136;2023-09-12T02:28:02;12.90;;;5.72;;
55218;SDS011;65463;43.864;20.136;2023-09-12T02:30:31;13.02;;;5.53;;
55218;SDS011;65463;43.864;20.136;2023-09-12T02:32:57;14.95;;;6.10;;
55218;SDS011;65463;43.864;20.136;2023-09-12T02:35:23;13.10;;;5.63;;
55218;SDS011;65463;43.864;20.136;2023-09-12T02:37:50;12.45;;;5.38;;
55218;SDS011;65463;43.864;20.136;2023-09-12T02:40:18;14.68;;;5.50;;
55218;SDS011;65463;43.864;20.136;2023-09-12T02:42:44;13.90;;;5.45;;
55218;SDS011;65463;43.864;20.136;2023-09-12T02:45:11;15.38;;;5.70;;
55218;SDS011;65463;43.864;20.136;2023-09-12T02:47:37;11.00;;;5.18;;
55218;SDS011;65463;43.864;20.136;2023-09-12T02:50:08;11.52;;;5.47;;
55218;SDS011;65463;43.864;20.136;2023-09-12T02:52:35;14.20;;;5.30;;
55218;SDS011;65463;43.864;20.136;2023-09-12T02:55:01;11.65;;;5.20;;
55218;SDS011;65463;43.864;20.136;2023-09-12T02:57:27;11.20;;;5.15;;
55218;SDS011;65463;43.864;20.136;2023-09-12T02:59:56;13.05;;;6.07;;
55218;SDS011;65463;43.864;20.136;2023-09-12T03:02:27;10.35;;;5.57;;
55218;SDS011;65463;43.864;20.136;2023-09-12T03:04:54;10.98;;;6.05;;
55218;SDS011;65463;43.864;20.136;2023-09-12T03:07:20;9.32;;;5.43;;
55218;SDS011;65463;43.864;20.136;2023-09-12T03:09:49;11.05;;;5.28;;
55218;SDS011;65463;43.864;20.136;2023-09-12T03:12:18;8.25;;;4.60;;
55218;SDS011;65463;43.864;20.136;2023-09-12T03:14:44;9.85;;;4.88;;
55218;SDS011;65463;43.864;20.136;2023-09-12T03:17:10;11.35;;;4.85;;
55218;SDS011;65463;43.864;20.136;2023-09-12T03:19:37;10.55;;;4.85;;
55218;SDS011;65463;43.864;20.136;2023-09-12T03:22:03;12.00;;;5.20;;
55218;SDS011;65463;43.864;20.136;2023-09-12T03:24:29;12.63;;;5.30;;
55218;SDS011;65463;43.864;20.136;2023-09-12T03:26:56;12.30;;;5.50;;
55218;SDS011;65463;43.864;20.136;2023-09-12T03:29:22;12.40;;;5.45;;
55218;SDS011;65463;43.864;20.136;2023-09-12T03:31:48;13.52;;;5.65;;
55218;SDS011;65463;43.864;20.136;2023-09-12T03:34:14;11.32;;;5.65;;
55218;SDS011;65463;43.864;20.136;2023-09-12T03:36:40;12.90;;;5.57;;
55218;SDS011;65463;43.864;20.136;2023-09-12T03:39:07;10.48;;;4.70;;
55218;SDS011;65463;43.864;20.136;2023-09-12T03:41:36;10.85;;;5.43;;
55218;SDS011;65463;43.864;20.136;2023-09-12T03:44:03;13.57;;;4.97;;
55218;SDS011;65463;43.864;20.136;2023-09-12T03:46:29;9.90;;;4.72;;
55218;SDS011;65463;43.864;20.136;2023-09-12T03:48:55;10.23;;;5.10;;
55218;SDS011;65463;43.864;20.136;2023-09-12T03:51:21;12.73;;;4.93;;
55218;SDS011;65463;43.864;20.136;2023-09-12T03:53:47;11.32;;;4.90;;
55218;SDS011;65463;43.864;20.136;2023-09-12T03:56:18;9.40;;;4.82;;
55218;SDS011;65463;43.864;20.136;2023-09-12T03:58:52;12.15;;;5.03;;
55218;SDS011;65463;43.864;20.136;2023-09-12T04:01:22;11.57;;;5.50;;
55218;SDS011;65463;43.864;20.136;2023-09-12T04:03:49;10.93;;;4.97;;
55218;SDS011;65463;43.864;20.136;2023-09-12T04:06:15;12.98;;;5.70;;
55218;SDS011;65463;43.864;20.136;2023-09-12T04:08:41;10.70;;;4.90;;
55218;SDS011;65463;43.864;20.136;2023-09-12T04:11:07;10.70;;;5.53;;
55218;SDS011;65463;43.864;20.136;2023-09-12T04:13:33;11.05;;;5.55;;
55218;SDS011;65463;43.864;20.136;2023-09-12T04:15:59;10.45;;;5.38;;
55218;SDS011;65463;43.864;20.136;2023-09-12T04:18:25;12.43;;;5.25;;
55218;SDS011;65463;43.864;20.136;2023-09-12T04:20:52;9.73;;;5.13;;
55218;SDS011;65463;43.864;20.136;2023-09-12T04:23:20;12.75;;;5.25;;
55218;SDS011;65463;43.864;20.136;2023-09-12T04:25:46;14.65;;;5.15;;
55218;SDS011;65463;43.864;20.136;2023-09-12T04:28:13;12.70;;;5.38;;
55218;SDS011;65463;43.864;20.136;2023-09-12T04:30:39;9.88;;;4.90;;
55218;SDS011;65463;43.864;20.136;2023-09-12T04:33:06;8.70;;;4.85;;
55218;SDS011;65463;43.864;20.136;2023-09-12T04:35:33;11.00;;;4.90;;
55218;SDS011;65463;43.864;20.136;2023-09-12T04:37:59;8.10;;;4.53;;
55218;SDS011;65463;43.864;20.136;2023-09-12T04:40:25;8.95;;;4.95;;
55218;SDS011;65463;43.864;20.136;2023-09-12T04:42:54;10.88;;;4.55;;
55218;SDS011;65463;43.864;20.136;2023-09-12T04:45:20;7.45;;;3.95;;
55218;SDS011;65463;43.864;20.136;2023-09-12T04:47:46;8.13;;;4.05;;
55218;SDS011;65463;43.864;20.136;2023-09-12T04:50:12;7.47;;;3.97;;
55218;SDS011;65463;43.864;20.136;2023-09-12T04:52:38;9.02;;;3.70;;
55218;SDS011;65463;43.864;20.136;2023-09-12T04:55:04;11.88;;;5.20;;
55218;SDS011;65463;43.864;20.136;2023-09-12T04:57:31;9.02;;;4.00;;
55218;SDS011;65463;43.864;20.136;2023-09-12T04:59:58;7.70;;;4.03;;
55218;SDS011;65463;43.864;20.136;2023-09-12T05:02:26;7.57;;;4.00;;
55218;SDS011;65463;43.864;20.136;2023-09-12T05:04:52;10.75;;;4.38;;
55218;SDS011;65463;43.864;20.136;2023-09-12T05:07:19;6.18;;;3.72;;
55218;SDS011;65463;43.864;20.136;2023-09-12T05:09:45;6.13;;;3.65;;
55218;SDS011;65463;43.864;20.136;2023-09-12T05:12:11;7.43;;;4.30;;
55218;SDS011;65463;43.864;20.136;2023-09-12T05:14:37;16.38;;;4.40;;
55218;SDS011;65463;43.864;20.136;2023-09-12T05:17:04;15.98;;;4.25;;
55218;SDS011;65463;43.864;20.136;2023-09-12T05:19:32;13.40;;;4.57;;
55218;SDS011;65463;43.864;20.136;2023-09-12T05:21:58;12.32;;;4.93;;
55218;SDS011;65463;43.864;20.136;2023-09-12T05:24:25;13.40;;;4.57;;
55218;SDS011;65463;43.864;20.136;2023-09-12T05:26:51;19.95;;;4.93;;
55218;SDS011;65463;43.864;20.136;2023-09-12T05:29:17;18.33;;;5.60;;
55218;SDS011;65463;43.864;20.136;2023-09-12T05:31:43;14.23;;;5.55;;
55218;SDS011;65463;43.864;20.136;2023-09-12T05:34:10;13.55;;;5.10;;
55218;SDS011;65463;43.864;20.136;2023-09-12T05:36:36;8.40;;;4.80;;
55218;SDS011;65463;43.864;20.136;2023-09-12T05:39:02;11.50;;;4.85;;
55218;SDS011;65463;43.864;20.136;2023-09-12T05:41:28;9.52;;;4.90;;
55218;SDS011;65463;43.864;20.136;2023-09-12T05:43:55;9.57;;;4.88;;
55218;SDS011;65463;43.864;20.136;2023-09-12T05:46:21;15.65;;;4.88;;
55218;SDS011;65463;43.864;20.136;2023-09-12T05:48:47;12.13;;;5.30;;
55218;SDS011;65463;43.864;20.136;2023-09-12T05:51:13;10.77;;;4.97;;
55218;SDS011;65463;43.864;20.136;2023-09-12T05:53:44;13.43;;;6.00;;
55218;SDS011;65463;43.864;20.136;2023-09-12T05:56:13;12.50;;;6.35;;
55218;SDS011;65463;43.864;20.136;2023-09-12T05:58:41;14.60;;;5.97;;
55218;SDS011;65463;43.864;20.136;2023-09-12T06:01:08;11.50;;;6.55;;
55218;SDS011;65463;43.864;20.136;2023-09-12T06:03:34;11.00;;;6.57;;
55218;SDS011;65463;43.864;20.136;2023-09-12T06:06:08;14.13;;;6.43;;
55218;SDS011;65463;43.864;20.136;2023-09-12T06:08:34;14.90;;;6.43;;
55218;SDS011;65463;43.864;20.136;2023-09-12T06:11:00;11.60;;;6.18;;
55218;SDS011;65463;43.864;20.136;2023-09-12T06:13:26;15.63;;;6.45;;
55218;SDS011;65463;43.864;20.136;2023-09-12T06:15:53;16.77;;;6.03;;
55218;SDS011;65463;43.864;20.136;2023-09-12T06:18:20;13.63;;;6.50;;
55218;SDS011;65463;43.864;20.136;2023-09-12T06:20:46;15.38;;;6.65;;
55218;SDS011;65463;43.864;20.136;2023-09-12T06:23:12;11.95;;;5.95;;
55218;SDS011;65463;43.864;20.136;2023-09-12T06:25:38;14.23;;;6.38;;
55218;SDS011;65463;43.864;20.136;2023-09-12T06:28:05;15.65;;;6.13;;
55218;SDS011;65463;43.864;20.136;2023-09-12T06:30:31;12.85;;;6.20;;
55218;SDS011;65463;43.864;20.136;2023-09-12T06:32:57;39.63;;;13.45;;
55218;SDS011;65463;43.864;20.136;2023-09-12T06:35:26;20.52;;;8.68;;
55218;SDS011;65463;43.864;20.136;2023-09-12T06:37:52;13.82;;;6.47;;
55218;SDS011;65463;43.864;20.136;2023-09-12T06:40:22;14.48;;;6.32;;
55218;SDS011;65463;43.864;20.136;2023-09-12T06:42:48;13.07;;;6.93;;
55218;SDS011;65463;43.864;20.136;2023-09-12T06:45:14;12.57;;;6.07;;
55218;SDS011;65463;43.864;20.136;2023-09-12T06:47:40;15.13;;;7.40;;
55218;SDS011;65463;43.864;20.136;2023-09-12T06:50:11;11.95;;;6.43;;
55218;SDS011;65463;43.864;20.136;2023-09-12T06:52:37;12.00;;;6.25;;
55218;SDS011;65463;43.864;20.136;2023-09-12T06:55:03;13.10;;;6.25;;
55218;SDS011;65463;43.864;20.136;2023-09-12T06:57:30;13.27;;;6.20;;
55218;SDS011;65463;43.864;20.136;2023-09-12T06:59:56;15.95;;;6.18;;
55218;SDS011;65463;43.864;20.136;2023-09-12T07:02:23;11.55;;;6.10;;
55218;SDS011;65463;43.864;20.136;2023-09-12T07:04:49;15.80;;;7.30;;
55218;SDS011;65463;43.864;20.136;2023-09-12T07:07:15;15.98;;;7.65;;
55218;SDS011;65463;43.864;20.136;2023-09-12T07:09:41;14.10;;;7.10;;
55218;SDS011;65463;43.864;20.136;2023-09-12T07:12:07;15.82;;;7.03;;
55218;SDS011;65463;43.864;20.136;2023-09-12T07:14:34;14.75;;;5.95;;
55218;SDS011;65463;43.864;20.136;2023-09-12T07:17:05;18.33;;;7.80;;
55218;SDS011;65463;43.864;20.136;2023-09-12T07:19:32;16.13;;;7.75;;
55218;SDS011;65463;43.864;20.136;2023-09-12T07:21:58;13.50;;;7.07;;
55218;SDS011;65463;43.864;20.136;2023-09-12T07:24:25;17.10;;;7.93;;
55218;SDS011;65463;43.864;20.136;2023-09-12T07:26:51;17.90;;;7.50;;
55218;SDS011;65463;43.864;20.136;2023-09-12T07:29:18;16.20;;;7.15;;
55218;SDS011;65463;43.864;20.136;2023-09-12T07:31:44;18.90;;;6.90;;
55218;SDS011;65463;43.864;20.136;2023-09-12T07:34:10;16.00;;;6.78;;
55218;SDS011;65463;43.864;20.136;2023-09-12T07:36:37;14.82;;;6.95;;
55218;SDS011;65463;43.864;20.136;2023-09-12T07:39:04;14.40;;;6.57;;
55218;SDS011;65463;43.864;20.136;2023-09-12T07:41:30;18.70;;;6.40;;
55218;SDS011;65463;43.864;20.136;2023-09-12T07:43:56;13.90;;;5.22;;
55218;SDS011;65463;43.864;20.136;2023-09-12T07:46:22;14.35;;;5.65;;
55218;SDS011;65463;43.864;20.136;2023-09-12T07:48:49;12.07;;;5.10;;
55218;SDS011;65463;43.864;20.136;2023-09-12T07:51:15;12.52;;;5.28;;
55218;SDS011;65463;43.864;20.136;2023-09-12T07:53:44;12.82;;;5.13;;
55218;SDS011;65463;43.864;20.136;2023-09-12T07:56:11;11.38;;;4.90;;
55218;SDS011;65463;43.864;20.136;2023-09-12T07:58:37;12.85;;;4.93;;
55218;SDS011;65463;43.864;20.136;2023-09-12T08:01:05;16.05;;;4.90;;
55218;SDS011;65463;43.864;20.136;2023-09-12T08:03:32;11.45;;;4.40;;
55218;SDS011;65463;43.864;20.136;2023-09-12T08:05:58;10.52;;;4.50;;
55218;SDS011;65463;43.864;20.136;2023-09-12T08:08:24;11.68;;;4.00;;
55218;SDS011;65463;43.864;20.136;2023-09-12T08:10:50;9.13;;;4.18;;
55218;SDS011;65463;43.864;20.136;2023-09-12T08:13:16;10.50;;;4.20;;
55218;SDS011;65463;43.864;20.136;2023-09-12T08:15:43;10.98;;;4.15;;
55218;SDS011;65463;43.864;20.136;2023-09-12T08:18:09;7.40;;;3.50;;
55218;SDS011;65463;43.864;20.136;2023-09-12T08:20:35;9.65;;;3.53;;
55218;SDS011;65463;43.864;20.136;2023-09-12T08:23:02;8.55;;;3.60;;
55218;SDS011;65463;43.864;20.136;2023-09-12T08:25:28;9.75;;;4.15;;
55218;SDS011;65463;43.864;20.136;2023-09-12T08:27:54;10.02;;;3.88;;
55218;SDS011;65463;43.864;20.136;2023-09-12T08:30:20;9.27;;;3.70;;
55218;SDS011;65463;43.864;20.136;2023-09-12T08:32:46;8.75;;;3.25;;
55218;SDS011;65463;43.864;20.136;2023-09-12T08:35:13;8.15;;;3.47;;
55218;SDS011;65463;43.864;20.136;2023-09-12T08:37:40;7.13;;;3.50;;
55218;SDS011;65463;43.864;20.136;2023-09-12T08:40:07;9.20;;;4.25;;
55218;SDS011;65463;43.864;20.136;2023-09-12T08:42:41;8.48;;;3.88;;
55218;SDS011;65463;43.864;20.136;2023-09-12T08:45:09;11.20;;;4.60;;
55218;SDS011;65463;43.864;20.136;2023-09-12T08:47:38;13.07;;;4.78;;
55218;SDS011;65463;43.864;20.136;2023-09-12T08:50:10;11.20;;;4.78;;
55218;SDS011;65463;43.864;20.136;2023-09-12T08:52:37;8.35;;;3.88;;
55218;SDS011;65463;43.864;20.136;2023-09-12T08:55:03;7.63;;;3.38;;
55218;SDS011;65463;43.864;20.136;2023-09-12T08:57:30;10.90;;;3.63;;
55218;SDS011;65463;43.864;20.136;2023-09-12T08:59:59;8.88;;;3.30;;
55218;SDS011;65463;43.864;20.136;2023-09-12T09:02:38;8.02;;;3.50;;
55218;SDS011;65463;43.864;20.136;2023-09-12T09:05:08;8.65;;;3.35;;
55218;SDS011;65463;43.864;20.136;2023-09-12T09:07:41;10.65;;;3.80;;
55218;SDS011;65463;43.864;20.136;2023-09-12T09:10:13;9.73;;;3.60;;
55218;SDS011;65463;43.864;20.136;2023-09-12T09:12:40;10.55;;;4.10;;
55218;SDS011;65463;43.864;20.136;2023-09-12T09:17:51;14.13;;;6.18;;
55218;SDS011;65463;43.864;20.136;2023-09-12T09:20:25;20.98;;;6.55;;
55218;SDS011;65463;43.864;20.136;2023-09-12T09:22:58;13.18;;;5.53;;
55218;SDS011;65463;43.864;20.136;2023-09-12T09:25:30;14.65;;;5.78;;
55218;SDS011;65463;43.864;20.136;2023-09-12T09:27:56;11.80;;;5.35;;
55218;SDS011;65463;43.864;20.136;2023-09-12T09:30:41;11.80;;;5.05;;
55218;SDS011;65463;43.864;20.136;2023-09-12T09:33:08;17.33;;;6.70;;
55218;SDS011;65463;43.864;20.136;2023-09-12T09:35:34;13.15;;;5.88;;
55218;SDS011;65463;43.864;20.136;2023-09-12T09:38:01;13.00;;;5.88;;
55218;SDS011;65463;43.864;20.136;2023-09-12T09:40:27;18.15;;;6.25;;
55218;SDS011;65463;43.864;20.136;2023-09-12T09:42:54;14.70;;;5.72;;
55218;SDS011;65463;43.864;20.136;2023-09-12T09:45:21;11.60;;;4.85;;
55218;SDS011;65463;43.864;20.136;2023-09-12T09:47:49;12.65;;;6.03;;
55218;SDS011;65463;43.864;20.136;2023-09-12T09:50:16;15.18;;;4.50;;
55218;SDS011;65463;43.864;20.136;2023-09-12T09:52:42;7.90;;;4.20;;
55218;SDS011;65463;43.864;20.136;2023-09-12T09:55:15;8.88;;;3.60;;
55218;SDS011;65463;43.864;20.136;2023-09-12T09:57:41;11.38;;;3.60;;
55218;SDS011;65463;43.864;20.136;2023-09-12T10:00:07;12.90;;;4.30;;
55218;SDS011;65463;43.864;20.136;2023-09-12T10:02:39;10.45;;;3.38;;
55218;SDS011;65463;43.864;20.136;2023-09-12T10:05:06;8.13;;;3.08;;
55218;SDS011;65463;43.864;20.136;2023-09-12T10:10:02;10.45;;;3.28;;
55218;SDS011;65463;43.864;20.136;2023-09-12T10:12:33;11.52;;;3.08;;
55218;SDS011;65463;43.864;20.136;2023-09-12T10:15:01;7.10;;;2.53;;
55218;SDS011;65463;43.864;20.136;2023-09-12T10:17:30;10.48;;;2.88;;
55218;SDS011;65463;43.864;20.136;2023-09-12T10:19:58;9.68;;;2.95;;
55218;SDS011;65463;43.864;20.136;2023-09-12T10:22:34;9.32;;;3.38;;
55218;SDS011;65463;43.864;20.136;2023-09-12T10:25:01;10.27;;;3.15;;
55218;SDS011;65463;43.864;20.136;2023-09-12T10:27:28;11.75;;;3.33;;
55218;SDS011;65463;43.864;20.136;2023-09-12T10:29:54;11.40;;;3.25;;
55218;SDS011;65463;43.864;20.136;2023-09-12T10:32:24;11.68;;;3.40;;
55218;SDS011;65463;43.864;20.136;2023-09-12T10:34:52;9.43;;;3.13;;
55218;SDS011;65463;43.864;20.136;2023-09-12T10:37:19;8.65;;;3.50;;
55218;SDS011;65463;43.864;20.136;2023-09-12T10:39:45;10.93;;;3.47;;
55218;SDS011;65463;43.864;20.136;2023-09-12T10:42:11;21.13;;;6.00;;
55218;SDS011;65463;43.864;20.136;2023-09-12T10:44:38;11.18;;;4.90;;
55218;SDS011;65463;43.864;20.136;2023-09-12T10:47:04;12.73;;;5.18;;
55218;SDS011;65463;43.864;20.136;2023-09-12T10:49:31;15.18;;;3.20;;
55218;SDS011;65463;43.864;20.136;2023-09-12T10:51:57;17.58;;;5.75;;
55218;SDS011;65463;43.864;20.136;2023-09-12T10:54:25;11.75;;;4.57;;
55218;SDS011;65463;43.864;20.136;2023-09-12T10:57:04;23.83;;;7.45;;
55218;SDS011;65463;43.864;20.136;2023-09-12T10:59:30;14.23;;;4.43;;
55218;SDS011;65463;43.864;20.136;2023-09-12T11:02:45;11.65;;;3.20;;
55218;SDS011;65463;43.864;20.136;2023-09-12T11:04:46;9.35;;;3.00;;
55218;SDS011;65463;43.864;20.136;2023-09-12T11:12:42;10.73;;;3.30;;
55218;SDS011;65463;43.864;20.136;2023-09-12T11:15:09;7.05;;;2.70;;
55218;SDS011;65463;43.864;20.136;2023-09-12T11:22:36;10.60;;;2.80;;
55218;SDS011;65463;43.864;20.136;2023-09-12T11:25:26;7.68;;;2.55;;
55218;SDS011;65463;43.864;20.136;2023-09-12T11:30:22;9.23;;;2.50;;
55218;SDS011;65463;43.864;20.136;2023-09-12T11:32:50;11.18;;;2.80;;
55218;SDS011;65463;43.864;20.136;2023-09-12T11:35:17;9.95;;;2.33;;
55218;SDS011;65463;43.864;20.136;2023-09-12T11:37:54;7.07;;;2.42;;
55218;SDS011;65463;43.864;20.136;2023-09-12T11:42:59;7.22;;;2.33;;
55218;SDS011;65463;43.864;20.136;2023-09-12T11:45:25;12.52;;;3.17;;
55218;SDS011;65463;43.864;20.136;2023-09-12T11:47:52;14.30;;;2.30;;
55218;SDS011;65463;43.864;20.136;2023-09-12T11:53:04;9.40;;;2.40;;
55218;SDS011;65463;43.864;20.136;2023-09-12T11:55:31;9.77;;;2.50;;
55218;SDS011;65463;43.864;20.136;2023-09-12T11:57:57;8.98;;;2.92;;
55218;SDS011;65463;43.864;20.136;2023-09-12T12:00:23;10.77;;;3.00;;
55218;SDS011;65463;43.864;20.136;2023-09-12T12:02:51;10.45;;;2.90;;
55218;SDS011;65463;43.864;20.136;2023-09-12T12:05:18;10.98;;;3.13;;
55218;SDS011;65463;43.864;20.136;2023-09-12T12:07:44;17.25;;;3.15;;
55218;SDS011;65463;43.864;20.136;2023-09-12T12:10:12;8.05;;;2.88;;
55218;SDS011;65463;43.864;20.136;2023-09-12T12:12:39;10.43;;;3.05;;
55218;SDS011;65463;43.864;20.136;2023-09-12T12:15:09;8.07;;;2.80;;
55218;SDS011;65463;43.864;20.136;2023-09-12T12:17:41;14.27;;;2.90;;
55218;SDS011;65463;43.864;20.136;2023-09-12T12:20:08;9.70;;;2.60;;
55218;SDS011;65463;43.864;20.136;2023-09-12T12:22:39;10.45;;;2.70;;
55218;SDS011;65463;43.864;20.136;2023-09-12T12:25:08;12.32;;;2.80;;
55218;SDS011;65463;43.864;20.136;2023-09-12T12:30:00;13.50;;;3.17;;
55218;SDS011;65463;43.864;20.136;2023-09-12T12:32:27;12.00;;;3.20;;
55218;SDS011;65463;43.864;20.136;2023-09-12T12:34:53;11.90;;;3.08;;
55218;SDS011;65463;43.864;20.136;2023-09-12T12:37:19;14.13;;;3.50;;
55218;SDS011;65463;43.864;20.136;2023-09-12T12:39:45;14.05;;;3.03;;
55218;SDS011;65463;43.864;20.136;2023-09-12T12:42:11;14.48;;;3.90;;
55218;SDS011;65463;43.864;20.136;2023-09-12T12:44:38;17.40;;;3.78;;
55218;SDS011;65463;43.864;20.136;2023-09-12T12:47:06;20.33;;;4.70;;
55218;SDS011;65463;43.864;20.136;2023-09-12T12:49:37;12.97;;;3.57;;
55218;SDS011;65463;43.864;20.136;2023-09-12T12:52:04;14.73;;;3.58;;
55218;SDS011;65463;43.864;20.136;2023-09-12T12:54:31;14.60;;;3.95;;
55218;SDS011;65463;43.864;20.136;2023-09-12T12:57:00;10.32;;;3.55;;
55218;SDS011;65463;43.864;20.136;2023-09-12T12:59:28;12.57;;;4.05;;
55218;SDS011;65463;43.864;20.136;2023-09-12T13:02:01;16.92;;;3.67;;
55218;SDS011;65463;43.864;20.136;2023-09-12T13:04:28;15.95;;;3.63;;
55218;SDS011;65463;43.864;20.136;2023-09-12T13:06:54;15.82;;;3.70;;
55218;SDS011;65463;43.864;20.136;2023-09-12T13:09:20;13.38;;;3.38;;
55218;SDS011;65463;43.864;20.136;2023-09-12T13:11:46;12.35;;;3.45;;
55218;SDS011;65463;43.864;20.136;2023-09-12T13:14:12;12.07;;;3.13;;
55218;SDS011;65463;43.864;20.136;2023-09-12T13:16:38;16.50;;;3.58;;
55218;SDS011;65463;43.864;20.136;2023-09-12T13:19:06;11.20;;;3.72;;
55218;SDS011;65463;43.864;20.136;2023-09-12T13:21:32;10.88;;;2.95;;
55218;SDS011;65463;43.864;20.136;2023-09-12T13:23:58;9.40;;;2.70;;
55218;SDS011;65463;43.864;20.136;2023-09-12T13:26:24;9.20;;;3.28;;
55218;SDS011;65463;43.864;20.136;2023-09-12T13:28:50;10.10;;;3.20;;
55218;SDS011;65463;43.864;20.136;2023-09-12T13:31:17;8.20;;;2.90;;
55218;SDS011;65463;43.864;20.136;2023-09-12T13:33:43;8.82;;;2.65;;
55218;SDS011;65463;43.864;20.136;2023-09-12T13:36:09;9.45;;;3.10;;
55218;SDS011;65463;43.864;20.136;2023-09-12T13:38:35;10.55;;;3.20;;
55218;SDS011;65463;43.864;20.136;2023-09-12T13:41:01;10.40;;;3.17;;
55218;SDS011;65463;43.864;20.136;2023-09-12T13:43:28;9.88;;;3.00;;
55218;SDS011;65463;43.864;20.136;2023-09-12T13:45:54;9.25;;;2.72;;
55218;SDS011;65463;43.864;20.136;2023-09-12T13:48:20;6.75;;;2.80;;
55218;SDS011;65463;43.864;20.136;2023-09-12T13:50:46;9.63;;;2.92;;
55218;SDS011;65463;43.864;20.136;2023-09-12T13:53:12;5.97;;;2.83;;
55218;SDS011;65463;43.864;20.136;2023-09-12T13:55:39;9.88;;;3.17;;
55218;SDS011;65463;43.864;20.136;2023-09-12T13:58:05;15.25;;;6.50;;
55218;SDS011;65463;43.864;20.136;2023-09-12T14:00:33;11.10;;;4.20;;
55218;SDS011;65463;43.864;20.136;2023-09-12T14:02:59;10.98;;;3.78;;
55218;SDS011;65463;43.864;20.136;2023-09-12T14:05:25;13.48;;;4.18;;
55218;SDS011;65463;43.864;20.136;2023-09-12T14:07:52;9.55;;;3.60;;
55218;SDS011;65463;43.864;20.136;2023-09-12T14:10:18;8.43;;;3.22;;
55218;SDS011;65463;43.864;20.136;2023-09-12T14:12:44;10.73;;;3.42;;
55218;SDS011;65463;43.864;20.136;2023-09-12T14:15:11;15.30;;;3.20;;
55218;SDS011;65463;43.864;20.136;2023-09-12T14:17:39;11.82;;;3.40;;
55218;SDS011;65463;43.864;20.136;2023-09-12T14:20:05;8.63;;;3.60;;
55218;SDS011;65463;43.864;20.136;2023-09-12T14:22:32;12.70;;;3.25;;
55218;SDS011;65463;43.864;20.136;2023-09-12T14:24:59;11.93;;;3.83;;
55218;SDS011;65463;43.864;20.136;2023-09-12T14:27:25;9.48;;;3.25;;
55218;SDS011;65463;43.864;20.136;2023-09-12T14:29:51;13.52;;;3.22;;
55218;SDS011;65463;43.864;20.136;2023-09-12T14:32:18;14.48;;;2.80;;
55218;SDS011;65463;43.864;20.136;2023-09-12T14:34:44;12.45;;;3.17;;
55218;SDS011;65463;43.864;20.136;2023-09-12T14:37:10;12.25;;;3.40;;
55218;SDS011;65463;43.864;20.136;2023-09-12T14:39:36;10.40;;;3.83;;
55218;SDS011;65463;43.864;20.136;2023-09-12T14:42:03;17.20;;;3.58;;
55218;SDS011;65463;43.864;20.136;2023-09-12T14:44:33;17.88;;;3.72;;
55218;SDS011;65463;43.864;20.136;2023-09-12T14:47:00;13.45;;;3.67;;
55218;SDS011;65463;43.864;20.136;2023-09-12T14:49:26;9.82;;;3.28;;
55218;SDS011;65463;43.864;20.136;2023-09-12T14:51:52;9.77;;;3.40;;
55218;SDS011;65463;43.864;20.136;2023-09-12T14:54:18;13.98;;;3.33;;